sensor_id;sensor_type;location;lat;lon;timestamp;pressure;altitude;pressure_sealevel;temperature;humidity
77770;BME280;66961;51.482;9.160;2023-11-22T00:01:24;100272.03;;;1.26;100.00
77770;BME280;66961;51.482;9.160;2023-11-22T00:03:50;100268.47;;;1.13;100.00
77770;BME280;66961;51.482;9.160;2023-11-22T00:06:15;100278.25;;;1.09;100.00
77770;BME280;66961;51.482;9.160;2023-11-22T00:08:40;100274.63;;;0.97;100.00
77770;BME280;66961;51.482;9.160;2023-11-22T00:11:05;100277.31;;;0.96;100.00
77770;BME280;66961;51.482;9.160;2023-11-22T00:13:31;100282.31;;;0.85;100.00
77770;BME280;66961;51.482;9.160;2023-11-22T00:15:56;100293.28;;;0.76;100.00
77770;BME280;66961;51.482;9.160;2023-11-22T00:18:21;100292.78;;;0.69;100.00
77770;BME280;66961;51.482;9.160;2023-11-22T00:20:46;100287.50;;;0.55;100.00
77770;BME280;66961;51.482;9.160;2023-11-22T00:23:12;100294.84;;;0.48;100.00
77770;BME280;66961;51.482;9.160;2023-11-22T00:25:37;100303.59;;;0.47;100.00
77770;BME280;66961;51.482;9.160;2023-11-22T00:28:02;100301.34;;;0.41;100.00
77770;BME280;66961;51.482;9.160;2023-11-22T00:30:28;100300.00;;;0.34;100.00
77770;BME280;66961;51.482;9.160;2023-11-22T00:32:53;100296.13;;;0.25;100.00
77770;BME280;66961;51.482;9.160;2023-11-22T00:35:18;100299.72;;;0.23;100.00
77770;BME280;66961;51.482;9.160;2023-11-22T00:37:44;100302.66;;;0.17;100.00
77770;BME280;66961;51.482;9.160;2023-11-22T00:40:09;100309.72;;;0.15;100.00
77770;BME280;66961;51.482;9.160;2023-11-22T00:42:34;100320.31;;;0.12;100.00
77770;BME280;66961;51.482;9.160;2023-11-22T00:45:00;100312.44;;;-0.03;100.00
77770;BME280;66961;51.482;9.160;2023-11-22T00:47:25;100327.63;;;0.05;100.00
77770;BME280;66961;51.482;9.160;2023-11-22T00:49:50;100337.97;;;0.07;100.00
77770;BME280;66961;51.482;9.160;2023-11-22T00:52:15;100336.97;;;0.09;100.00
77770;BME280;66961;51.482;9.160;2023-11-22T00:54:41;100333.75;;;0.04;100.00
77770;BME280;66961;51.482;9.160;2023-11-22T00:57:06;100338.97;;;0.04;100.00
77770;BME280;66961;51.482;9.160;2023-11-22T00:59:31;100345.94;;;0.04;100.00
77770;BME280;66961;51.482;9.160;2023-11-22T01:01:56;100359.06;;;0.02;100.00
77770;BME280;66961;51.482;9.160;2023-11-22T01:04:22;100357.50;;;-0.01;100.00
77770;BME280;66961;51.482;9.160;2023-11-22T01:06:47;100360.25;;;-0.04;100.00
77770;BME280;66961;51.482;9.160;2023-11-22T01:09:12;100345.56;;;-0.05;100.00
77770;BME280;66961;51.482;9.160;2023-11-22T01:11:38;100354.38;;;-0.07;100.00
77770;BME280;66961;51.482;9.160;2023-11-22T01:14:03;100352.69;;;-0.08;100.00
77770;BME280;66961;51.482;9.160;2023-11-22T01:16:28;100349.63;;;-0.16;100.00
77770;BME280;66961;51.482;9.160;2023-11-22T01:18:53;100357.38;;;-0.15;100.00
77770;BME280;66961;51.482;9.160;2023-11-22T01:21:19;100348.97;;;-0.20;100.00
77770;BME280;66961;51.482;9.160;2023-11-22T01:23:44;100346.50;;;-0.23;100.00
77770;BME280;66961;51.482;9.160;2023-11-22T01:26:09;100348.44;;;-0.26;100.00
77770;BME280;66961;51.482;9.160;2023-11-22T01:28:35;100358.84;;;-0.26;100.00
77770;BME280;66961;51.482;9.160;2023-11-22T01:31:00;100362.84;;;-0.37;100.00
77770;BME280;66961;51.482;9.160;2023-11-22T01:33:26;100373.41;;;-0.40;100.00
77770;BME280;66961;51.482;9.160;2023-11-22T01:35:51;100364.16;;;-0.45;100.00
77770;BME280;66961;51.482;9.160;2023-11-22T01:38:16;100374.56;;;-0.45;100.00
77770;BME280;66961;51.482;9.160;2023-11-22T01:40:47;100372.63;;;-0.57;100.00
77770;BME280;66961;51.482;9.160;2023-11-22T01:43:19;100381.44;;;-0.60;100.00
77770;BME280;66961;51.482;9.160;2023-11-22T01:45:44;100388.69;;;-0.67;100.00
77770;BME280;66961;51.482;9.160;2023-11-22T01:48:11;100389.00;;;-0.73;100.00
77770;BME280;66961;51.482;9.160;2023-11-22T01:50:40;100394.28;;;-0.74;100.00
77770;BME280;66961;51.482;9.160;2023-11-22T01:53:07;100380.50;;;-0.76;100.00
77770;BME280;66961;51.482;9.160;2023-11-22T01:55:34;100387.69;;;-0.81;100.00
77770;BME280;66961;51.482;9.160;2023-11-22T01:57:59;100396.78;;;-0.90;100.00
77770;BME280;66961;51.482;9.160;2023-11-22T02:00:26;100384.00;;;-0.94;100.00
77770;BME280;66961;51.482;9.160;2023-11-22T02:02:56;100393.56;;;-0.95;100.00
77770;BME280;66961;51.482;9.160;2023-11-22T02:05:21;100392.09;;;-1.01;100.00
77770;BME280;66961;51.482;9.160;2023-11-22T02:07:46;100382.69;;;-1.03;100.00
77770;BME280;66961;51.482;9.160;2023-11-22T02:10:12;100373.22;;;-1.04;100.00
77770;BME280;66961;51.482;9.160;2023-11-22T02:12:37;100377.59;;;-1.05;100.00
77770;BME280;66961;51.482;9.160;2023-11-22T02:15:03;100373.75;;;-1.15;100.00
77770;BME280;66961;51.482;9.160;2023-11-22T02:17:29;100372.13;;;-1.17;100.00
77770;BME280;66961;51.482;9.160;2023-11-22T02:19:55;100381.28;;;-1.27;100.00
77770;BME280;66961;51.482;9.160;2023-11-22T02:22:20;100365.34;;;-1.39;100.00
77770;BME280;66961;51.482;9.160;2023-11-22T02:24:45;100359.91;;;-1.34;100.00
77770;BME280;66961;51.482;9.160;2023-11-22T02:27:11;100370.63;;;-1.40;100.00
77770;BME280;66961;51.482;9.160;2023-11-22T02:29:36;100365.84;;;-1.49;100.00
77770;BME280;66961;51.482;9.160;2023-11-22T02:32:01;100380.59;;;-1.50;100.00
77770;BME280;66961;51.482;9.160;2023-11-22T02:34:27;100380.81;;;-1.54;100.00
77770;BME280;66961;51.482;9.160;2023-11-22T02:36:52;100388.00;;;-1.59;100.00
77770;BME280;66961;51.482;9.160;2023-11-22T02:39:17;100390.75;;;-1.62;100.00
77770;BME280;66961;51.482;9.160;2023-11-22T02:41:42;100390.94;;;-1.67;100.00
77770;BME280;66961;51.482;9.160;2023-11-22T02:44:08;100399.72;;;-1.70;100.00
77770;BME280;66961;51.482;9.160;2023-11-22T02:46:33;100405.91;;;-1.72;100.00
77770;BME280;66961;51.482;9.160;2023-11-22T02:48:58;100401.97;;;-1.81;100.00
77770;BME280;66961;51.482;9.160;2023-11-22T02:51:24;100406.81;;;-1.73;100.00
77770;BME280;66961;51.482;9.160;2023-11-22T02:53:49;100414.03;;;-1.80;100.00
77770;BME280;66961;51.482;9.160;2023-11-22T02:56:15;100411.09;;;-1.91;100.00
77770;BME280;66961;51.482;9.160;2023-11-22T02:58:40;100410.25;;;-1.91;100.00
77770;BME280;66961;51.482;9.160;2023-11-22T03:01:06;100400.75;;;-1.92;100.00
77770;BME280;66961;51.482;9.160;2023-11-22T03:03:31;100405.19;;;-1.94;100.00
77770;BME280;66961;51.482;9.160;2023-11-22T03:05:57;100404.41;;;-1.96;100.00
77770;BME280;66961;51.482;9.160;2023-11-22T03:08:22;100407.00;;;-1.96;100.00
77770;BME280;66961;51.482;9.160;2023-11-22T03:10:47;100410.25;;;-1.91;100.00
77770;BME280;66961;51.482;9.160;2023-11-22T03:13:12;100414.84;;;-1.98;100.00
77770;BME280;66961;51.482;9.160;2023-11-22T03:15:38;100417.59;;;-2.01;100.00
77770;BME280;66961;51.482;9.160;2023-11-22T03:18:03;100426.94;;;-1.97;100.00
77770;BME280;66961;51.482;9.160;2023-11-22T03:20:28;100437.19;;;-1.94;100.00
77770;BME280;66961;51.482;9.160;2023-11-22T03:22:54;100436.22;;;-1.91;100.00
77770;BME280;66961;51.482;9.160;2023-11-22T03:25:19;100438.75;;;-1.90;100.00
77770;BME280;66961;51.482;9.160;2023-11-22T03:27:44;100442.25;;;-1.91;100.00
77770;BME280;66961;51.482;9.160;2023-11-22T03:30:10;100444.06;;;-1.93;100.00
77770;BME280;66961;51.482;9.160;2023-11-22T03:32:35;100451.81;;;-1.91;100.00
77770;BME280;66961;51.482;9.160;2023-11-22T03:35:00;100452.44;;;-1.86;100.00
77770;BME280;66961;51.482;9.160;2023-11-22T03:37:25;100451.84;;;-1.73;100.00
77770;BME280;66961;51.482;9.160;2023-11-22T03:39:51;100457.63;;;-1.66;100.00
77770;BME280;66961;51.482;9.160;2023-11-22T03:42:16;100459.09;;;-1.60;100.00
77770;BME280;66961;51.482;9.160;2023-11-22T03:44:42;100457.09;;;-1.55;100.00
77770;BME280;66961;51.482;9.160;2023-11-22T03:47:09;100447.72;;;-1.58;100.00
77770;BME280;66961;51.482;9.160;2023-11-22T03:49:35;100463.56;;;-1.45;100.00
77770;BME280;66961;51.482;9.160;2023-11-22T03:52:00;100467.94;;;-1.46;100.00
77770;BME280;66961;51.482;9.160;2023-11-22T03:54:25;100471.94;;;-1.39;100.00
77770;BME280;66961;51.482;9.160;2023-11-22T03:56:50;100464.91;;;-1.37;100.00
77770;BME280;66961;51.482;9.160;2023-11-22T03:59:16;100469.22;;;-1.36;100.00
77770;BME280;66961;51.482;9.160;2023-11-22T04:01:41;100469.84;;;-1.30;100.00
77770;BME280;66961;51.482;9.160;2023-11-22T04:04:06;100475.59;;;-1.24;100.00
77770;BME280;66961;51.482;9.160;2023-11-22T04:06:31;100466.03;;;-1.23;100.00
77770;BME280;66961;51.482;9.160;2023-11-22T04:08:58;100472.09;;;-1.23;100.00
77770;BME280;66961;51.482;9.160;2023-11-22T04:11:24;100479.13;;;-1.25;100.00
77770;BME280;66961;51.482;9.160;2023-11-22T04:13:49;100473.22;;;-1.28;100.00
77770;BME280;66961;51.482;9.160;2023-11-22T04:16:14;100476.72;;;-1.29;100.00
77770;BME280;66961;51.482;9.160;2023-11-22T04:18:40;100475.19;;;-1.34;100.00
77770;BME280;66961;51.482;9.160;2023-11-22T04:21:06;100490.84;;;-1.35;100.00
77770;BME280;66961;51.482;9.160;2023-11-22T04:23:32;100489.88;;;-1.33;100.00
77770;BME280;66961;51.482;9.160;2023-11-22T04:25:58;100487.34;;;-1.34;100.00
77770;BME280;66961;51.482;9.160;2023-11-22T04:28:24;100483.19;;;-1.38;100.00
77770;BME280;66961;51.482;9.160;2023-11-22T04:30:49;100488.66;;;-1.44;100.00
77770;BME280;66961;51.482;9.160;2023-11-22T04:33:14;100500.19;;;-1.50;100.00
77770;BME280;66961;51.482;9.160;2023-11-22T04:35:40;100507.50;;;-1.58;100.00
77770;BME280;66961;51.482;9.160;2023-11-22T04:38:05;100500.94;;;-1.67;100.00
77770;BME280;66961;51.482;9.160;2023-11-22T04:40:30;100506.53;;;-1.76;100.00
77770;BME280;66961;51.482;9.160;2023-11-22T04:42:56;100514.47;;;-1.79;100.00
77770;BME280;66961;51.482;9.160;2023-11-22T04:45:21;100520.50;;;-1.78;100.00
77770;BME280;66961;51.482;9.160;2023-11-22T04:47:46;100523.19;;;-1.80;100.00
77770;BME280;66961;51.482;9.160;2023-11-22T04:50:12;100512.22;;;-1.86;100.00
77770;BME280;66961;51.482;9.160;2023-11-22T04:52:37;100514.88;;;-1.88;100.00
77770;BME280;66961;51.482;9.160;2023-11-22T04:55:02;100515.72;;;-1.87;100.00
77770;BME280;66961;51.482;9.160;2023-11-22T04:57:28;100533.38;;;-1.95;100.00
77770;BME280;66961;51.482;9.160;2023-11-22T04:59:53;100531.75;;;-1.98;100.00
77770;BME280;66961;51.482;9.160;2023-11-22T05:02:19;100538.06;;;-2.04;100.00
77770;BME280;66961;51.482;9.160;2023-11-22T05:04:44;100533.97;;;-2.09;100.00
77770;BME280;66961;51.482;9.160;2023-11-22T05:07:09;100534.22;;;-2.15;100.00
77770;BME280;66961;51.482;9.160;2023-11-22T05:09:34;100541.13;;;-2.14;100.00
77770;BME280;66961;51.482;9.160;2023-11-22T05:12:00;100536.13;;;-2.19;100.00
77770;BME280;66961;51.482;9.160;2023-11-22T05:14:25;100526.56;;;-2.18;100.00
77770;BME280;66961;51.482;9.160;2023-11-22T05:16:50;100522.41;;;-2.22;100.00
77770;BME280;66961;51.482;9.160;2023-11-22T05:19:15;100527.72;;;-2.25;100.00
77770;BME280;66961;51.482;9.160;2023-11-22T05:21:41;100532.38;;;-2.34;100.00
77770;BME280;66961;51.482;9.160;2023-11-22T05:24:07;100534.31;;;-2.39;100.00
77770;BME280;66961;51.482;9.160;2023-11-22T05:26:32;100521.72;;;-2.48;100.00
77770;BME280;66961;51.482;9.160;2023-11-22T05:28:57;100540.78;;;-2.49;100.00
77770;BME280;66961;51.482;9.160;2023-11-22T05:31:23;100539.28;;;-2.54;100.00
77770;BME280;66961;51.482;9.160;2023-11-22T05:33:48;100536.75;;;-2.56;100.00
77770;BME280;66961;51.482;9.160;2023-11-22T05:36:13;100527.31;;;-2.58;100.00
77770;BME280;66961;51.482;9.160;2023-11-22T05:38:38;100534.09;;;-2.54;100.00
77770;BME280;66961;51.482;9.160;2023-11-22T05:41:04;100541.69;;;-2.50;100.00
77770;BME280;66961;51.482;9.160;2023-11-22T05:43:29;100536.31;;;-2.45;100.00
77770;BME280;66961;51.482;9.160;2023-11-22T05:45:54;100549.38;;;-2.47;100.00
77770;BME280;66961;51.482;9.160;2023-11-22T05:48:20;100550.09;;;-2.43;100.00
77770;BME280;66961;51.482;9.160;2023-11-22T05:50:46;100551.72;;;-2.41;100.00
77770;BME280;66961;51.482;9.160;2023-11-22T05:53:12;100557.75;;;-2.40;100.00
77770;BME280;66961;51.482;9.160;2023-11-22T05:55:37;100569.59;;;-2.33;100.00
77770;BME280;66961;51.482;9.160;2023-11-22T05:58:03;100579.66;;;-2.25;100.00
77770;BME280;66961;51.482;9.160;2023-11-22T06:00:29;100572.72;;;-2.25;100.00
77770;BME280;66961;51.482;9.160;2023-11-22T06:02:54;100580.50;;;-2.25;100.00
77770;BME280;66961;51.482;9.160;2023-11-22T06:05:20;100579.84;;;-2.30;100.00
77770;BME280;66961;51.482;9.160;2023-11-22T06:07:45;100592.75;;;-2.28;100.00
77770;BME280;66961;51.482;9.160;2023-11-22T06:10:10;100587.09;;;-2.38;100.00
77770;BME280;66961;51.482;9.160;2023-11-22T06:12:35;100595.78;;;-2.39;100.00
77770;BME280;66961;51.482;9.160;2023-11-22T06:15:01;100599.53;;;-2.46;100.00
77770;BME280;66961;51.482;9.160;2023-11-22T06:17:26;100604.88;;;-2.51;100.00
77770;BME280;66961;51.482;9.160;2023-11-22T06:19:51;100605.06;;;-2.55;100.00
77770;BME280;66961;51.482;9.160;2023-11-22T06:22:16;100601.84;;;-2.60;100.00
77770;BME280;66961;51.482;9.160;2023-11-22T06:24:42;100612.34;;;-2.63;100.00
77770;BME280;66961;51.482;9.160;2023-11-22T06:27:07;100622.81;;;-2.67;100.00
77770;BME280;66961;51.482;9.160;2023-11-22T06:29:32;100624.69;;;-2.70;100.00
77770;BME280;66961;51.482;9.160;2023-11-22T06:31:57;100621.63;;;-2.14;100.00
77770;BME280;66961;51.482;9.160;2023-11-22T06:34:23;100609.38;;;-2.11;100.00
77770;BME280;66961;51.482;9.160;2023-11-22T06:36:48;100611.00;;;-2.08;100.00
77770;BME280;66961;51.482;9.160;2023-11-22T06:39:13;100616.19;;;-2.08;100.00
77770;BME280;66961;51.482;9.160;2023-11-22T06:41:42;100612.09;;;-2.14;100.00
77770;BME280;66961;51.482;9.160;2023-11-22T06:44:07;100610.03;;;-2.27;100.00
77770;BME280;66961;51.482;9.160;2023-11-22T06:46:32;100616.56;;;-2.39;100.00
77770;BME280;66961;51.482;9.160;2023-11-22T06:48:57;100624.53;;;-2.44;100.00
77770;BME280;66961;51.482;9.160;2023-11-22T06:51:24;100628.38;;;-2.54;100.00
77770;BME280;66961;51.482;9.160;2023-11-22T06:53:49;100628.47;;;-2.57;100.00
77770;BME280;66961;51.482;9.160;2023-11-22T06:56:15;100623.44;;;-2.60;100.00
77770;BME280;66961;51.482;9.160;2023-11-22T06:58:40;100619.22;;;-2.62;100.00
77770;BME280;66961;51.482;9.160;2023-11-22T07:01:06;100629.34;;;-2.56;100.00
77770;BME280;66961;51.482;9.160;2023-11-22T07:03:31;100627.16;;;-2.45;100.00
77770;BME280;66961;51.482;9.160;2023-11-22T07:05:56;100626.81;;;-2.36;100.00
77770;BME280;66961;51.482;9.160;2023-11-22T07:08:21;100626.31;;;-2.46;100.00
77770;BME280;66961;51.482;9.160;2023-11-22T07:10:47;100619.44;;;-2.47;100.00
77770;BME280;66961;51.482;9.160;2023-11-22T07:13:12;100627.97;;;-2.43;100.00
77770;BME280;66961;51.482;9.160;2023-11-22T07:15:37;100620.34;;;-2.48;100.00
77770;BME280;66961;51.482;9.160;2023-11-22T07:18:02;100619.56;;;-2.50;100.00
77770;BME280;66961;51.482;9.160;2023-11-22T07:20:28;100614.31;;;-2.48;100.00
77770;BME280;66961;51.482;9.160;2023-11-22T07:22:53;100609.19;;;-2.50;100.00
77770;BME280;66961;51.482;9.160;2023-11-22T07:25:18;100623.78;;;-2.47;100.00
77770;BME280;66961;51.482;9.160;2023-11-22T07:27:45;100612.50;;;-2.46;100.00
77770;BME280;66961;51.482;9.160;2023-11-22T07:30:10;100614.97;;;-2.43;100.00
77770;BME280;66961;51.482;9.160;2023-11-22T07:32:36;100620.06;;;-2.40;100.00
77770;BME280;66961;51.482;9.160;2023-11-22T07:35:01;100616.50;;;-2.38;100.00
77770;BME280;66961;51.482;9.160;2023-11-22T07:37:26;100613.72;;;-2.33;100.00
77770;BME280;66961;51.482;9.160;2023-11-22T07:39:52;100617.66;;;-2.23;100.00
77770;BME280;66961;51.482;9.160;2023-11-22T07:42:17;100618.31;;;-2.18;100.00
77770;BME280;66961;51.482;9.160;2023-11-22T07:44:42;100620.78;;;-2.15;100.00
77770;BME280;66961;51.482;9.160;2023-11-22T07:47:07;100614.50;;;-2.09;100.00
77770;BME280;66961;51.482;9.160;2023-11-22T07:49:33;100625.41;;;-2.01;100.00
77770;BME280;66961;51.482;9.160;2023-11-22T07:51:58;100618.84;;;-1.89;100.00
77770;BME280;66961;51.482;9.160;2023-11-22T07:54:23;100614.13;;;-1.80;100.00
77770;BME280;66961;51.482;9.160;2023-11-22T07:56:49;100593.94;;;-1.73;100.00
77770;BME280;66961;51.482;9.160;2023-11-22T07:59:14;100598.75;;;-1.64;100.00
77770;BME280;66961;51.482;9.160;2023-11-22T08:01:42;100606.22;;;-1.56;100.00
77770;BME280;66961;51.482;9.160;2023-11-22T08:04:08;100597.28;;;-1.51;100.00
77770;BME280;66961;51.482;9.160;2023-11-22T08:06:33;100600.34;;;-1.41;100.00
77770;BME280;66961;51.482;9.160;2023-11-22T08:08:59;100600.13;;;-1.37;100.00
77770;BME280;66961;51.482;9.160;2023-11-22T08:11:24;100602.34;;;-1.27;100.00
77770;BME280;66961;51.482;9.160;2023-11-22T08:13:49;100609.81;;;-1.20;100.00
77770;BME280;66961;51.482;9.160;2023-11-22T08:16:14;100624.88;;;-1.08;100.00
77770;BME280;66961;51.482;9.160;2023-11-22T08:18:40;100616.09;;;-1.05;100.00
77770;BME280;66961;51.482;9.160;2023-11-22T08:21:06;100636.53;;;-0.97;100.00
77770;BME280;66961;51.482;9.160;2023-11-22T08:23:31;100633.53;;;-0.88;100.00
77770;BME280;66961;51.482;9.160;2023-11-22T08:25:58;100633.13;;;-0.79;100.00
77770;BME280;66961;51.482;9.160;2023-11-22T08:28:23;100643.09;;;-0.70;100.00
77770;BME280;66961;51.482;9.160;2023-11-22T08:30:48;100647.13;;;-0.63;100.00
77770;BME280;66961;51.482;9.160;2023-11-22T08:33:13;100644.16;;;-0.55;100.00
77770;BME280;66961;51.482;9.160;2023-11-22T08:35:39;100640.66;;;-0.54;100.00
77770;BME280;66961;51.482;9.160;2023-11-22T08:38:04;100649.78;;;-0.46;100.00
77770;BME280;66961;51.482;9.160;2023-11-22T08:40:29;100651.19;;;-0.39;100.00
77770;BME280;66961;51.482;9.160;2023-11-22T08:42:54;100650.75;;;-0.29;100.00
77770;BME280;66961;51.482;9.160;2023-11-22T08:45:20;100648.63;;;-0.21;100.00
77770;BME280;66961;51.482;9.160;2023-11-22T08:47:45;100653.47;;;-0.14;100.00
77770;BME280;66961;51.482;9.160;2023-11-22T08:50:11;100648.69;;;-0.04;100.00
77770;BME280;66961;51.482;9.160;2023-11-22T08:52:37;100644.59;;;0.08;100.00
77770;BME280;66961;51.482;9.160;2023-11-22T08:55:03;100644.56;;;0.26;100.00
77770;BME280;66961;51.482;9.160;2023-11-22T08:57:28;100650.94;;;0.38;100.00
77770;BME280;66961;51.482;9.160;2023-11-22T08:59:54;100657.88;;;0.55;100.00
77770;BME280;66961;51.482;9.160;2023-11-22T09:02:19;100663.94;;;0.73;100.00
77770;BME280;66961;51.482;9.160;2023-11-22T09:04:44;100688.78;;;0.97;100.00
77770;BME280;66961;51.482;9.160;2023-11-22T09:07:10;100686.19;;;1.13;100.00
77770;BME280;66961;51.482;9.160;2023-11-22T09:09:35;100690.78;;;1.25;100.00
77770;BME280;66961;51.482;9.160;2023-11-22T09:12:00;100675.03;;;1.26;96.54
77770;BME280;66961;51.482;9.160;2023-11-22T09:14:26;100670.16;;;1.36;95.71
77770;BME280;66961;51.482;9.160;2023-11-22T09:16:51;100670.09;;;1.53;95.74
77770;BME280;66961;51.482;9.160;2023-11-22T09:19:16;100665.88;;;1.66;96.78
77770;BME280;66961;51.482;9.160;2023-11-22T09:21:42;100669.66;;;1.77;95.98
77770;BME280;66961;51.482;9.160;2023-11-22T09:24:07;100669.31;;;1.98;93.93
77770;BME280;66961;51.482;9.160;2023-11-22T09:26:32;100666.84;;;2.11;94.21
77770;BME280;66961;51.482;9.160;2023-11-22T09:28:57;100664.19;;;1.81;87.92
77770;BME280;66961;51.482;9.160;2023-11-22T09:31:23;100652.97;;;1.79;90.53
77770;BME280;66961;51.482;9.160;2023-11-22T09:33:48;100664.34;;;1.78;92.04
77770;BME280;66961;51.482;9.160;2023-11-22T09:36:15;100674.91;;;1.77;90.25
77770;BME280;66961;51.482;9.160;2023-11-22T09:38:40;100672.13;;;1.48;87.33
77770;BME280;66961;51.482;9.160;2023-11-22T09:41:05;100677.66;;;1.42;86.86
77770;BME280;66961;51.482;9.160;2023-11-22T09:43:31;100671.28;;;1.48;88.66
77770;BME280;66961;51.482;9.160;2023-11-22T09:45:56;100674.91;;;1.45;88.28
77770;BME280;66961;51.482;9.160;2023-11-22T09:48:21;100677.84;;;1.71;89.97
77770;BME280;66961;51.482;9.160;2023-11-22T09:53:40;100660.13;;;1.91;86.20
77770;BME280;66961;51.482;9.160;2023-11-22T09:56:09;100661.94;;;2.21;87.99
77770;BME280;66961;51.482;9.160;2023-11-22T09:58:35;100675.31;;;2.30;85.17
77770;BME280;66961;51.482;9.160;2023-11-22T10:01:03;100653.47;;;2.31;82.41
77770;BME280;66961;51.482;9.160;2023-11-22T10:03:28;100651.69;;;2.76;82.69
77770;BME280;66961;51.482;9.160;2023-11-22T10:05:55;100656.44;;;2.70;79.32
77770;BME280;66961;51.482;9.160;2023-11-22T10:08:21;100646.84;;;3.13;81.48
77770;BME280;66961;51.482;9.160;2023-11-22T10:10:46;100663.59;;;3.24;79.41
77770;BME280;66961;51.482;9.160;2023-11-22T10:13:13;100675.03;;;3.09;79.47
77770;BME280;66961;51.482;9.160;2023-11-22T10:15:38;100679.88;;;3.15;78.35
77770;BME280;66961;51.482;9.160;2023-11-22T10:18:03;100682.66;;;3.12;77.45
77770;BME280;66961;51.482;9.160;2023-11-22T10:20:37;100670.63;;;2.95;77.32
77770;BME280;66961;51.482;9.160;2023-11-22T10:23:02;100663.13;;;2.89;77.37
77770;BME280;66961;51.482;9.160;2023-11-22T10:25:28;100668.47;;;3.02;78.60
77770;BME280;66961;51.482;9.160;2023-11-22T10:27:53;100671.50;;;2.66;76.76
77770;BME280;66961;51.482;9.160;2023-11-22T10:30:19;100685.41;;;2.66;78.67
77770;BME280;66961;51.482;9.160;2023-11-22T10:32:45;100679.25;;;2.53;77.33
77770;BME280;66961;51.482;9.160;2023-11-22T10:35:11;100675.97;;;2.50;79.50
77770;BME280;66961;51.482;9.160;2023-11-22T10:37:36;100674.88;;;2.38;78.64
77770;BME280;66961;51.482;9.160;2023-11-22T10:40:02;100675.50;;;2.57;80.59
77770;BME280;66961;51.482;9.160;2023-11-22T10:42:29;100682.13;;;2.63;79.86
77770;BME280;66961;51.482;9.160;2023-11-22T10:44:55;100688.28;;;2.92;77.16
77770;BME280;66961;51.482;9.160;2023-11-22T10:47:20;100692.13;;;3.15;78.57
77770;BME280;66961;51.482;9.160;2023-11-22T10:49:46;100677.44;;;3.26;75.81
77770;BME280;66961;51.482;9.160;2023-11-22T10:52:13;100684.44;;;3.40;76.20
77770;BME280;66961;51.482;9.160;2023-11-22T10:54:44;100684.56;;;3.39;75.10
77770;BME280;66961;51.482;9.160;2023-11-22T10:57:11;100698.16;;;3.72;73.72
77770;BME280;66961;51.482;9.160;2023-11-22T10:59:39;100689.13;;;3.63;71.73
77770;BME280;66961;51.482;9.160;2023-11-22T11:02:13;100683.72;;;3.79;75.04
77770;BME280;66961;51.482;9.160;2023-11-22T11:04:50;100681.13;;;3.65;72.38
77770;BME280;66961;51.482;9.160;2023-11-22T11:07:21;100705.72;;;3.91;73.21
77770;BME280;66961;51.482;9.160;2023-11-22T11:09:47;100693.13;;;4.23;72.44
77770;BME280;66961;51.482;9.160;2023-11-22T11:12:14;100690.91;;;3.90;70.15
77770;BME280;66961;51.482;9.160;2023-11-22T11:14:39;100690.75;;;3.79;70.44
77770;BME280;66961;51.482;9.160;2023-11-22T11:17:06;100684.50;;;3.67;70.40
77770;BME280;66961;51.482;9.160;2023-11-22T11:19:31;100691.88;;;3.75;70.11
77770;BME280;66961;51.482;9.160;2023-11-22T11:21:57;100690.66;;;3.80;69.96
77770;BME280;66961;51.482;9.160;2023-11-22T11:24:22;100683.25;;;3.87;68.77
77770;BME280;66961;51.482;9.160;2023-11-22T11:26:48;100679.84;;;3.58;69.18
77770;BME280;66961;51.482;9.160;2023-11-22T11:29:35;100680.88;;;3.55;69.46
77770;BME280;66961;51.482;9.160;2023-11-22T11:32:03;100687.16;;;3.39;72.10
77770;BME280;66961;51.482;9.160;2023-11-22T11:34:28;100669.75;;;3.23;71.11
77770;BME280;66961;51.482;9.160;2023-11-22T11:36:53;100659.22;;;3.11;72.83
77770;BME280;66961;51.482;9.160;2023-11-22T11:39:25;100664.25;;;3.14;71.12
77770;BME280;66961;51.482;9.160;2023-11-22T11:41:51;100648.72;;;3.25;72.71
77770;BME280;66961;51.482;9.160;2023-11-22T11:44:17;100652.72;;;3.30;70.90
77770;BME280;66961;51.482;9.160;2023-11-22T11:46:43;100656.94;;;3.19;74.33
77770;BME280;66961;51.482;9.160;2023-11-22T11:49:12;100632.44;;;3.20;72.99
77770;BME280;66961;51.482;9.160;2023-11-22T11:51:37;100639.91;;;3.26;72.62
77770;BME280;66961;51.482;9.160;2023-11-22T11:54:02;100649.28;;;3.30;69.11
77770;BME280;66961;51.482;9.160;2023-11-22T11:56:28;100632.97;;;3.53;71.25
77770;BME280;66961;51.482;9.160;2023-11-22T11:58:56;100646.97;;;3.93;69.17
77770;BME280;66961;51.482;9.160;2023-11-22T12:01:21;100641.78;;;4.06;69.30
77770;BME280;66961;51.482;9.160;2023-11-22T12:03:47;100634.03;;;4.05;69.18
77770;BME280;66961;51.482;9.160;2023-11-22T12:06:16;100637.59;;;4.16;68.29
77770;BME280;66961;51.482;9.160;2023-11-22T12:08:42;100649.16;;;4.14;64.17
77770;BME280;66961;51.482;9.160;2023-11-22T12:11:07;100633.50;;;4.64;65.92
77770;BME280;66961;51.482;9.160;2023-11-22T12:13:33;100633.03;;;5.21;67.46
77770;BME280;66961;51.482;9.160;2023-11-22T12:16:00;100626.47;;;5.76;64.92
77770;BME280;66961;51.482;9.160;2023-11-22T12:18:25;100613.16;;;6.03;61.09
77770;BME280;66961;51.482;9.160;2023-11-22T12:20:58;100615.06;;;5.88;61.38
77770;BME280;66961;51.482;9.160;2023-11-22T12:23:24;100607.09;;;6.14;60.37
77770;BME280;66961;51.482;9.160;2023-11-22T12:25:54;100598.75;;;6.20;60.87
77770;BME280;66961;51.482;9.160;2023-11-22T12:28:26;100573.50;;;5.70;61.24
77770;BME280;66961;51.482;9.160;2023-11-22T12:30:51;100578.41;;;5.50;62.73
77770;BME280;66961;51.482;9.160;2023-11-22T12:33:16;100567.28;;;5.47;63.23
77770;BME280;66961;51.482;9.160;2023-11-22T12:35:42;100572.22;;;5.15;63.63
77770;BME280;66961;51.482;9.160;2023-11-22T12:38:07;100557.41;;;5.14;63.85
77770;BME280;66961;51.482;9.160;2023-11-22T12:40:34;100547.13;;;4.98;60.56